sensor_id;sensor_type;location;lat;lon;timestamp;P1;durP1;ratioP1;P2;durP2;ratioP2
63693;SDS011;49839;51.798;10.954;2023-07-13T00:00:11;3.80;;;1.83;;
63693;SDS011;49839;51.798;10.954;2023-07-13T00:05:23;5.20;;;1.58;;
63693;SDS011;49839;51.798;10.954;2023-07-13T00:07:53;6.18;;;2.08;;
63693;SDS011;49839;51.798;10.954;2023-07-13T00:10:22;8.27;;;2.58;;
63693;SDS011;49839;51.798;10.954;2023-07-13T00:15:32;5.65;;;2.30;;
63693;SDS011;49839;51.798;10.954;2023-07-13T00:18:01;4.43;;;1.92;;
63693;SDS011;49839;51.798;10.954;2023-07-13T00:20:29;6.80;;;2.33;;
63693;SDS011;49839;51.798;10.954;2023-07-13T00:22:57;8.93;;;2.17;;
63693;SDS011;49839;51.798;10.954;2023-07-13T00:25:26;6.50;;;2.13;;
63693;SDS011;49839;51.798;10.954;2023-07-13T00:27:54;7.43;;;2.15;;
63693;SDS011;49839;51.798;10.954;2023-07-13T00:33:16;6.38;;;2.10;;
63693;SDS011;49839;51.798;10.954;2023-07-13T00:38:26;5.32;;;1.90;;
63693;SDS011;49839;51.798;10.954;2023-07-13T00:43:36;6.53;;;2.00;;
63693;SDS011;49839;51.798;10.954;2023-07-13T00:46:15;4.15;;;1.83;;
63693;SDS011;49839;51.798;10.954;2023-07-13T00:48:45;4.65;;;1.70;;
63693;SDS011;49839;51.798;10.954;2023-07-13T00:51:16;7.10;;;2.03;;
63693;SDS011;49839;51.798;10.954;2023-07-13T00:54:00;6.22;;;1.95;;
63693;SDS011;49839;51.798;10.954;2023-07-13T00:56:32;4.60;;;1.65;;
63693;SDS011;49839;51.798;10.954;2023-07-13T00:59:03;6.07;;;2.10;;
63693;SDS011;49839;51.798;10.954;2023-07-13T01:04:20;4.57;;;1.70;;
63693;SDS011;49839;51.798;10.954;2023-07-13T01:06:50;6.70;;;2.40;;
63693;SDS011;49839;51.798;10.954;2023-07-13T01:09:19;7.32;;;1.90;;
63693;SDS011;49839;51.798;10.954;2023-07-13T01:11:47;7.93;;;2.25;;
63693;SDS011;49839;51.798;10.954;2023-07-13T01:14:17;8.38;;;2.33;;
63693;SDS011;49839;51.798;10.954;2023-07-13T01:16:45;6.57;;;1.98;;
63693;SDS011;49839;51.798;10.954;2023-07-13T01:19:18;12.57;;;2.30;;
63693;SDS011;49839;51.798;10.954;2023-07-13T01:22:04;12.07;;;2.40;;
63693;SDS011;49839;51.798;10.954;2023-07-13T01:24:35;7.05;;;2.20;;
63693;SDS011;49839;51.798;10.954;2023-07-13T01:27:03;5.05;;;2.08;;
63693;SDS011;49839;51.798;10.954;2023-07-13T01:32:01;6.20;;;1.97;;
63693;SDS011;49839;51.798;10.954;2023-07-13T01:34:29;6.57;;;2.00;;
63693;SDS011;49839;51.798;10.954;2023-07-13T01:36:56;7.28;;;2.38;;
63693;SDS011;49839;51.798;10.954;2023-07-13T01:39:25;5.90;;;2.17;;
63693;SDS011;49839;51.798;10.954;2023-07-13T01:41:53;6.05;;;2.05;;
63693;SDS011;49839;51.798;10.954;2023-07-13T01:44:20;3.35;;;1.67;;
63693;SDS011;49839;51.798;10.954;2023-07-13T01:46:48;6.05;;;2.20;;
63693;SDS011;49839;51.798;10.954;2023-07-13T01:49:15;5.40;;;2.00;;
63693;SDS011;49839;51.798;10.954;2023-07-13T01:51:43;6.97;;;2.55;;
63693;SDS011;49839;51.798;10.954;2023-07-13T01:54:10;6.85;;;2.10;;
63693;SDS011;49839;51.798;10.954;2023-07-13T01:56:39;6.13;;;2.20;;
63693;SDS011;49839;51.798;10.954;2023-07-13T02:01:35;6.35;;;2.20;;
63693;SDS011;49839;51.798;10.954;2023-07-13T02:04:03;6.07;;;2.00;;
63693;SDS011;49839;51.798;10.954;2023-07-13T02:06:31;5.13;;;1.92;;
63693;SDS011;49839;51.798;10.954;2023-07-13T02:08:58;5.32;;;2.05;;
63693;SDS011;49839;51.798;10.954;2023-07-13T02:11:26;6.57;;;2.42;;
63693;SDS011;49839;51.798;10.954;2023-07-13T02:14:00;6.60;;;2.05;;
63693;SDS011;49839;51.798;10.954;2023-07-13T02:16:28;7.78;;;2.35;;
63693;SDS011;49839;51.798;10.954;2023-07-13T02:18:56;7.20;;;2.00;;
63693;SDS011;49839;51.798;10.954;2023-07-13T02:21:24;7.28;;;2.17;;
63693;SDS011;49839;51.798;10.954;2023-07-13T02:23:52;8.60;;;2.03;;
63693;SDS011;49839;51.798;10.954;2023-07-13T02:26:21;5.68;;;2.00;;
63693;SDS011;49839;51.798;10.954;2023-07-13T02:28:48;7.60;;;2.40;;
63693;SDS011;49839;51.798;10.954;2023-07-13T02:31:17;5.35;;;2.38;;
63693;SDS011;49839;51.798;10.954;2023-07-13T02:33:45;9.95;;;2.85;;
63693;SDS011;49839;51.798;10.954;2023-07-13T02:36:13;6.65;;;2.38;;
63693;SDS011;49839;51.798;10.954;2023-07-13T02:38:42;6.82;;;2.10;;
63693;SDS011;49839;51.798;10.954;2023-07-13T02:41:10;7.05;;;2.15;;
63693;SDS011;49839;51.798;10.954;2023-07-13T02:43:39;8.80;;;2.20;;
63693;SDS011;49839;51.798;10.954;2023-07-13T02:46:07;10.07;;;2.47;;
63693;SDS011;49839;51.798;10.954;2023-07-13T02:48:37;8.00;;;2.30;;
63693;SDS011;49839;51.798;10.954;2023-07-13T02:51:06;7.40;;;2.30;;
63693;SDS011;49839;51.798;10.954;2023-07-13T02:53:35;10.35;;;2.60;;
63693;SDS011;49839;51.798;10.954;2023-07-13T02:56:03;8.55;;;2.50;;
63693;SDS011;49839;51.798;10.954;2023-07-13T02:58:31;6.68;;;2.15;;
63693;SDS011;49839;51.798;10.954;2023-07-13T03:00:59;7.80;;;2.38;;
63693;SDS011;49839;51.798;10.954;2023-07-13T03:03:26;5.07;;;2.47;;
63693;SDS011;49839;51.798;10.954;2023-07-13T03:05:59;3.65;;;1.70;;
63693;SDS011;49839;51.798;10.954;2023-07-13T03:08:28;8.05;;;2.20;;
63693;SDS011;49839;51.798;10.954;2023-07-13T03:10:59;5.30;;;2.00;;
63693;SDS011;49839;51.798;10.954;2023-07-13T03:13:27;4.68;;;2.08;;
63693;SDS011;49839;51.798;10.954;2023-07-13T03:15:55;10.77;;;2.20;;
63693;SDS011;49839;51.798;10.954;2023-07-13T03:18:23;9.55;;;2.35;;
63693;SDS011;49839;51.798;10.954;2023-07-13T03:20:51;7.57;;;2.30;;
63693;SDS011;49839;51.798;10.954;2023-07-13T03:23:20;7.43;;;1.90;;
63693;SDS011;49839;51.798;10.954;2023-07-13T03:25:49;9.30;;;2.00;;
63693;SDS011;49839;51.798;10.954;2023-07-13T03:28:16;7.38;;;2.42;;
63693;SDS011;49839;51.798;10.954;2023-07-13T03:30:44;10.20;;;2.22;;
63693;SDS011;49839;51.798;10.954;2023-07-13T03:33:11;4.25;;;1.90;;
63693;SDS011;49839;51.798;10.954;2023-07-13T03:35:40;4.68;;;1.55;;
63693;SDS011;49839;51.798;10.954;2023-07-13T03:38:10;5.38;;;1.65;;
63693;SDS011;49839;51.798;10.954;2023-07-13T03:40:39;7.38;;;1.80;;
63693;SDS011;49839;51.798;10.954;2023-07-13T03:43:07;8.73;;;1.90;;
63693;SDS011;49839;51.798;10.954;2023-07-13T03:45:37;6.32;;;1.65;;
63693;SDS011;49839;51.798;10.954;2023-07-13T03:48:05;8.23;;;2.08;;
63693;SDS011;49839;51.798;10.954;2023-07-13T03:50:35;5.93;;;1.50;;
63693;SDS011;49839;51.798;10.954;2023-07-13T03:53:03;3.67;;;1.73;;
63693;SDS011;49839;51.798;10.954;2023-07-13T03:55:31;9.55;;;2.03;;
63693;SDS011;49839;51.798;10.954;2023-07-13T03:58:00;11.45;;;2.10;;
63693;SDS011;49839;51.798;10.954;2023-07-13T04:00:48;10.15;;;2.00;;
63693;SDS011;49839;51.798;10.954;2023-07-13T04:03:16;8.00;;;1.83;;
63693;SDS011;49839;51.798;10.954;2023-07-13T04:05:44;6.60;;;1.88;;
63693;SDS011;49839;51.798;10.954;2023-07-13T04:08:12;7.40;;;2.00;;
63693;SDS011;49839;51.798;10.954;2023-07-13T04:10:40;12.13;;;1.92;;
63693;SDS011;49839;51.798;10.954;2023-07-13T04:13:09;7.18;;;1.60;;
63693;SDS011;49839;51.798;10.954;2023-07-13T04:15:37;5.50;;;1.33;;
63693;SDS011;49839;51.798;10.954;2023-07-13T04:18:06;8.50;;;1.58;;
63693;SDS011;49839;51.798;10.954;2023-07-13T04:20:33;6.82;;;1.60;;
63693;SDS011;49839;51.798;10.954;2023-07-13T04:23:01;4.63;;;1.85;;
63693;SDS011;49839;51.798;10.954;2023-07-13T04:25:29;7.38;;;1.90;;
63693;SDS011;49839;51.798;10.954;2023-07-13T04:27:56;7.22;;;1.30;;
63693;SDS011;49839;51.798;10.954;2023-07-13T04:30:25;7.28;;;1.75;;
63693;SDS011;49839;51.798;10.954;2023-07-13T04:32:53;9.85;;;1.50;;
63693;SDS011;49839;51.798;10.954;2023-07-13T04:35:21;6.00;;;1.30;;
63693;SDS011;49839;51.798;10.954;2023-07-13T04:37:49;6.57;;;1.52;;
63693;SDS011;49839;51.798;10.954;2023-07-13T04:40:17;4.70;;;1.27;;
63693;SDS011;49839;51.798;10.954;2023-07-13T04:42:45;4.45;;;1.25;;
63693;SDS011;49839;51.798;10.954;2023-07-13T04:45:13;7.07;;;1.30;;
63693;SDS011;49839;51.798;10.954;2023-07-13T04:47:42;7.65;;;1.55;;
63693;SDS011;49839;51.798;10.954;2023-07-13T04:50:12;6.50;;;1.40;;
63693;SDS011;49839;51.798;10.954;2023-07-13T04:52:41;8.23;;;1.73;;
63693;SDS011;49839;51.798;10.954;2023-07-13T04:55:09;3.47;;;1.30;;
63693;SDS011;49839;51.798;10.954;2023-07-13T04:57:37;4.70;;;1.40;;
63693;SDS011;49839;51.798;10.954;2023-07-13T05:00:05;12.80;;;1.52;;
63693;SDS011;49839;51.798;10.954;2023-07-13T05:02:34;5.57;;;1.70;;
63693;SDS011;49839;51.798;10.954;2023-07-13T05:05:04;5.43;;;1.23;;
63693;SDS011;49839;51.798;10.954;2023-07-13T05:07:32;6.85;;;1.30;;
63693;SDS011;49839;51.798;10.954;2023-07-13T05:10:00;4.90;;;1.38;;
63693;SDS011;49839;51.798;10.954;2023-07-13T05:12:27;5.00;;;1.20;;
63693;SDS011;49839;51.798;10.954;2023-07-13T05:14:55;6.13;;;1.38;;
63693;SDS011;49839;51.798;10.954;2023-07-13T05:17:23;8.07;;;1.55;;
63693;SDS011;49839;51.798;10.954;2023-07-13T05:19:51;3.38;;;1.25;;
63693;SDS011;49839;51.798;10.954;2023-07-13T05:22:20;4.10;;;1.30;;
63693;SDS011;49839;51.798;10.954;2023-07-13T05:24:48;4.50;;;1.25;;
63693;SDS011;49839;51.798;10.954;2023-07-13T05:27:16;5.10;;;1.08;;
63693;SDS011;49839;51.798;10.954;2023-07-13T05:29:43;4.55;;;1.38;;
63693;SDS011;49839;51.798;10.954;2023-07-13T05:32:11;3.83;;;1.33;;
63693;SDS011;49839;51.798;10.954;2023-07-13T05:34:39;5.72;;;1.27;;
63693;SDS011;49839;51.798;10.954;2023-07-13T05:37:07;5.07;;;1.10;;
63693;SDS011;49839;51.798;10.954;2023-07-13T05:39:36;4.20;;;1.10;;
63693;SDS011;49839;51.798;10.954;2023-07-13T05:42:04;7.68;;;1.77;;
63693;SDS011;49839;51.798;10.954;2023-07-13T05:44:32;4.00;;;1.00;;
63693;SDS011;49839;51.798;10.954;2023-07-13T05:47:00;4.32;;;1.20;;
63693;SDS011;49839;51.798;10.954;2023-07-13T05:49:29;4.97;;;1.00;;
63693;SDS011;49839;51.798;10.954;2023-07-13T05:51:57;5.70;;;1.17;;
63693;SDS011;49839;51.798;10.954;2023-07-13T05:54:25;16.63;;;2.40;;
63693;SDS011;49839;51.798;10.954;2023-07-13T05:56:54;7.18;;;1.20;;
63693;SDS011;49839;51.798;10.954;2023-07-13T05:59:21;8.15;;;1.25;;
63693;SDS011;49839;51.798;10.954;2023-07-13T06:01:49;4.22;;;1.00;;
63693;SDS011;49839;51.798;10.954;2023-07-13T06:04:18;6.03;;;1.00;;
63693;SDS011;49839;51.798;10.954;2023-07-13T06:06:47;7.85;;;1.23;;
63693;SDS011;49839;51.798;10.954;2023-07-13T06:09:15;5.38;;;1.20;;
63693;SDS011;49839;51.798;10.954;2023-07-13T06:11:43;6.43;;;1.30;;
63693;SDS011;49839;51.798;10.954;2023-07-13T06:14:12;7.00;;;1.20;;
63693;SDS011;49839;51.798;10.954;2023-07-13T06:16:40;5.70;;;1.20;;
63693;SDS011;49839;51.798;10.954;2023-07-13T06:19:08;15.88;;;1.20;;
63693;SDS011;49839;51.798;10.954;2023-07-13T06:21:36;7.35;;;1.30;;
63693;SDS011;49839;51.798;10.954;2023-07-13T06:24:04;7.78;;;1.40;;
63693;SDS011;49839;51.798;10.954;2023-07-13T06:26:32;11.40;;;2.03;;
63693;SDS011;49839;51.798;10.954;2023-07-13T06:29:00;8.75;;;1.52;;
63693;SDS011;49839;51.798;10.954;2023-07-13T06:31:29;7.30;;;1.42;;
63693;SDS011;49839;51.798;10.954;2023-07-13T06:33:57;13.15;;;1.58;;
63693;SDS011;49839;51.798;10.954;2023-07-13T06:36:24;8.23;;;1.65;;
63693;SDS011;49839;51.798;10.954;2023-07-13T06:38:52;7.00;;;1.80;;
63693;SDS011;49839;51.798;10.954;2023-07-13T06:41:20;8.13;;;1.65;;
63693;SDS011;49839;51.798;10.954;2023-07-13T06:43:48;8.57;;;1.98;;
63693;SDS011;49839;51.798;10.954;2023-07-13T06:46:16;8.88;;;1.90;;
63693;SDS011;49839;51.798;10.954;2023-07-13T06:48:47;7.80;;;1.65;;
63693;SDS011;49839;51.798;10.954;2023-07-13T06:51:15;7.60;;;1.45;;
63693;SDS011;49839;51.798;10.954;2023-07-13T06:53:43;8.90;;;1.38;;
63693;SDS011;49839;51.798;10.954;2023-07-13T06:56:11;8.73;;;1.40;;
63693;SDS011;49839;51.798;10.954;2023-07-13T06:58:39;7.57;;;1.42;;
63693;SDS011;49839;51.798;10.954;2023-07-13T07:01:07;8.13;;;1.90;;
63693;SDS011;49839;51.798;10.954;2023-07-13T07:03:36;6.40;;;1.25;;
63693;SDS011;49839;51.798;10.954;2023-07-13T07:06:09;8.50;;;2.10;;
63693;SDS011;49839;51.798;10.954;2023-07-13T07:08:41;12.18;;;1.60;;
63693;SDS011;49839;51.798;10.954;2023-07-13T07:11:11;6.05;;;1.45;;
63693;SDS011;49839;51.798;10.954;2023-07-13T07:13:40;8.93;;;1.55;;
63693;SDS011;49839;51.798;10.954;2023-07-13T07:16:07;9.48;;;1.58;;
63693;SDS011;49839;51.798;10.954;2023-07-13T07:18:36;7.93;;;1.80;;
63693;SDS011;49839;51.798;10.954;2023-07-13T07:21:04;6.00;;;1.53;;
63693;SDS011;49839;51.798;10.954;2023-07-13T07:23:33;10.98;;;1.65;;
63693;SDS011;49839;51.798;10.954;2023-07-13T07:26:00;5.05;;;1.10;;
63693;SDS011;49839;51.798;10.954;2023-07-13T07:28:28;10.23;;;1.30;;
63693;SDS011;49839;51.798;10.954;2023-07-13T07:30:59;5.78;;;1.38;;
63693;SDS011;49839;51.798;10.954;2023-07-13T07:33:30;5.30;;;1.08;;
63693;SDS011;49839;51.798;10.954;2023-07-13T07:35:57;7.13;;;1.25;;
63693;SDS011;49839;51.798;10.954;2023-07-13T07:38:28;7.35;;;1.35;;
63693;SDS011;49839;51.798;10.954;2023-07-13T07:40:57;6.45;;;1.33;;
63693;SDS011;49839;51.798;10.954;2023-07-13T07:43:27;6.20;;;1.38;;
63693;SDS011;49839;51.798;10.954;2023-07-13T07:45:55;5.07;;;1.25;;
63693;SDS011;49839;51.798;10.954;2023-07-13T07:48:24;7.03;;;1.60;;
63693;SDS011;49839;51.798;10.954;2023-07-13T07:50:52;11.07;;;1.40;;
63693;SDS011;49839;51.798;10.954;2023-07-13T07:53:20;5.80;;;1.13;;
63693;SDS011;49839;51.798;10.954;2023-07-13T07:55:47;5.35;;;1.17;;
63693;SDS011;49839;51.798;10.954;2023-07-13T07:58:19;2.70;;;0.85;;
63693;SDS011;49839;51.798;10.954;2023-07-13T08:00:50;4.20;;;1.10;;
63693;SDS011;49839;51.798;10.954;2023-07-13T08:03:20;4.68;;;1.00;;
63693;SDS011;49839;51.798;10.954;2023-07-13T08:05:52;5.05;;;0.93;;
63693;SDS011;49839;51.798;10.954;2023-07-13T08:08:23;6.32;;;1.30;;
63693;SDS011;49839;51.798;10.954;2023-07-13T08:10:50;7.10;;;1.10;;
63693;SDS011;49839;51.798;10.954;2023-07-13T08:13:26;5.93;;;1.13;;
63693;SDS011;49839;51.798;10.954;2023-07-13T08:15:53;5.95;;;1.05;;
63693;SDS011;49839;51.798;10.954;2023-07-13T08:18:21;5.50;;;1.00;;
63693;SDS011;49839;51.798;10.954;2023-07-13T08:20:50;7.43;;;1.30;;
63693;SDS011;49839;51.798;10.954;2023-07-13T08:23:18;6.85;;;1.15;;
63693;SDS011;49839;51.798;10.954;2023-07-13T08:25:50;6.80;;;1.33;;
63693;SDS011;49839;51.798;10.954;2023-07-13T08:28:18;4.90;;;1.00;;
63693;SDS011;49839;51.798;10.954;2023-07-13T08:30:47;6.93;;;1.30;;
63693;SDS011;49839;51.798;10.954;2023-07-13T08:33:16;6.93;;;1.10;;
63693;SDS011;49839;51.798;10.954;2023-07-13T08:35:45;6.45;;;1.10;;
63693;SDS011;49839;51.798;10.954;2023-07-13T08:38:13;4.05;;;1.33;;
63693;SDS011;49839;51.798;10.954;2023-07-13T08:40:41;4.60;;;1.27;;
63693;SDS011;49839;51.798;10.954;2023-07-13T08:43:11;5.13;;;1.10;;
63693;SDS011;49839;51.798;10.954;2023-07-13T08:45:43;6.22;;;1.00;;
63693;SDS011;49839;51.798;10.954;2023-07-13T08:48:15;5.90;;;1.10;;
63693;SDS011;49839;51.798;10.954;2023-07-13T08:50:48;6.75;;;1.08;;
63693;SDS011;49839;51.798;10.954;2023-07-13T08:53:29;3.47;;;0.88;;
63693;SDS011;49839;51.798;10.954;2023-07-13T08:56:03;4.03;;;1.00;;
63693;SDS011;49839;51.798;10.954;2023-07-13T08:58:36;3.25;;;0.73;;
63693;SDS011;49839;51.798;10.954;2023-07-13T09:01:15;5.22;;;0.90;;
63693;SDS011;49839;51.798;10.954;2023-07-13T09:03:52;4.32;;;0.80;;
63693;SDS011;49839;51.798;10.954;2023-07-13T09:06:27;3.90;;;0.90;;
63693;SDS011;49839;51.798;10.954;2023-07-13T09:09:02;5.72;;;1.08;;
63693;SDS011;49839;51.798;10.954;2023-07-13T09:11:41;4.00;;;0.95;;
63693;SDS011;49839;51.798;10.954;2023-07-13T09:14:22;4.13;;;0.90;;
63693;SDS011;49839;51.798;10.954;2023-07-13T09:17:02;4.47;;;0.70;;
63693;SDS011;49839;51.798;10.954;2023-07-13T09:19:33;3.33;;;0.80;;
63693;SDS011;49839;51.798;10.954;2023-07-13T09:22:03;5.88;;;0.80;;
63693;SDS011;49839;51.798;10.954;2023-07-13T09:24:39;4.07;;;0.85;;
63693;SDS011;49839;51.798;10.954;2023-07-13T09:27:19;4.03;;;0.90;;
63693;SDS011;49839;51.798;10.954;2023-07-13T09:29:51;3.22;;;0.60;;
63693;SDS011;49839;51.798;10.954;2023-07-13T09:32:24;4.53;;;1.10;;
63693;SDS011;49839;51.798;10.954;2023-07-13T09:34:54;6.97;;;0.70;;
63693;SDS011;49839;51.798;10.954;2023-07-13T09:37:24;4.07;;;0.70;;
63693;SDS011;49839;51.798;10.954;2023-07-13T09:39:57;4.90;;;0.95;;
63693;SDS011;49839;51.798;10.954;2023-07-13T09:42:26;3.30;;;0.80;;
63693;SDS011;49839;51.798;10.954;2023-07-13T09:44:55;2.85;;;0.60;;
63693;SDS011;49839;51.798;10.954;2023-07-13T09:47:25;1.88;;;0.47;;
63693;SDS011;49839;51.798;10.954;2023-07-13T09:49:58;3.42;;;0.70;;
63693;SDS011;49839;51.798;10.954;2023-07-13T09:52:38;3.90;;;0.70;;
63693;SDS011;49839;51.798;10.954;2023-07-13T09:55:25;4.68;;;0.80;;
63693;SDS011;49839;51.798;10.954;2023-07-13T09:57:56;3.83;;;0.82;;
63693;SDS011;49839;51.798;10.954;2023-07-13T10:00:25;5.45;;;0.90;;
63693;SDS011;49839;51.798;10.954;2023-07-13T10:02:58;2.30;;;0.68;;
63693;SDS011;49839;51.798;10.954;2023-07-13T10:05:29;5.90;;;0.88;;
63693;SDS011;49839;51.798;10.954;2023-07-13T10:08:17;4.93;;;0.85;;
63693;SDS011;49839;51.798;10.954;2023-07-13T10:10:52;3.00;;;0.90;;
63693;SDS011;49839;51.798;10.954;2023-07-13T10:13:28;4.65;;;0.90;;
63693;SDS011;49839;51.798;10.954;2023-07-13T10:15:58;6.88;;;1.17;;
63693;SDS011;49839;51.798;10.954;2023-07-13T10:18:27;5.35;;;0.90;;
63693;SDS011;49839;51.798;10.954;2023-07-13T10:21:09;3.65;;;0.70;;
63693;SDS011;49839;51.798;10.954;2023-07-13T10:23:47;3.45;;;0.90;;
63693;SDS011;49839;51.798;10.954;2023-07-13T10:26:19;7.07;;;1.00;;
63693;SDS011;49839;51.798;10.954;2023-07-13T10:28:54;7.20;;;1.10;;
63693;SDS011;49839;51.798;10.954;2023-07-13T10:31:24;5.65;;;0.90;;
63693;SDS011;49839;51.798;10.954;2023-07-13T10:33:52;6.68;;;0.90;;
63693;SDS011;49839;51.798;10.954;2023-07-13T10:36:32;2.97;;;0.80;;
63693;SDS011;49839;51.798;10.954;2023-07-13T10:39:10;4.13;;;0.90;;
63693;SDS011;49839;51.798;10.954;2023-07-13T10:41:44;2.65;;;0.70;;
63693;SDS011;49839;51.798;10.954;2023-07-13T10:44:17;2.92;;;0.85;;
63693;SDS011;49839;51.798;10.954;2023-07-13T10:46:52;6.67;;;1.00;;
63693;SDS011;49839;51.798;10.954;2023-07-13T10:49:23;3.83;;;0.90;;
63693;SDS011;49839;51.798;10.954;2023-07-13T10:51:53;2.03;;;0.60;;
63693;SDS011;49839;51.798;10.954;2023-07-13T10:54:22;5.50;;;0.75;;
63693;SDS011;49839;51.798;10.954;2023-07-13T10:57:06;2.75;;;0.70;;
63693;SDS011;49839;51.798;10.954;2023-07-13T10:59:43;5.30;;;1.30;;
63693;SDS011;49839;51.798;10.954;2023-07-13T11:02:15;5.75;;;1.00;;
63693;SDS011;49839;51.798;10.954;2023-07-13T11:04:50;2.80;;;0.82;;
63693;SDS011;49839;51.798;10.954;2023-07-13T11:07:23;3.03;;;0.82;;
63693;SDS011;49839;51.798;10.954;2023-07-13T11:09:53;5.10;;;0.75;;
63693;SDS011;49839;51.798;10.954;2023-07-13T11:12:27;2.92;;;0.85;;
63693;SDS011;49839;51.798;10.954;2023-07-13T11:15:26;5.63;;;1.00;;
63693;SDS011;49839;51.798;10.954;2023-07-13T11:18:01;3.58;;;0.85;;
63693;SDS011;49839;51.798;10.954;2023-07-13T11:20:32;6.63;;;1.00;;
63693;SDS011;49839;51.798;10.954;2023-07-13T11:25:59;4.85;;;0.80;;
63693;SDS011;49839;51.798;10.954;2023-07-13T11:28:30;3.65;;;1.52;;
63693;SDS011;49839;51.798;10.954;2023-07-13T11:31:00;3.47;;;0.70;;
63693;SDS011;49839;51.798;10.954;2023-07-13T11:33:45;4.72;;;0.95;;
63693;SDS011;49839;51.798;10.954;2023-07-13T11:36:19;5.72;;;1.02;;
63693;SDS011;49839;51.798;10.954;2023-07-13T11:38:56;2.38;;;0.70;;
63693;SDS011;49839;51.798;10.954;2023-07-13T11:41:29;4.65;;;0.77;;
63693;SDS011;49839;51.798;10.954;2023-07-13T11:44:07;3.15;;;0.70;;
63693;SDS011;49839;51.798;10.954;2023-07-13T11:46:39;2.28;;;0.70;;
63693;SDS011;49839;51.798;10.954;2023-07-13T11:49:14;3.65;;;0.80;;
63693;SDS011;49839;51.798;10.954;2023-07-13T11:51:43;2.05;;;0.60;;
63693;SDS011;49839;51.798;10.954;2023-07-13T11:54:20;4.18;;;0.85;;
63693;SDS011;49839;51.798;10.954;2023-07-13T11:56:53;1.83;;;0.60;;
63693;SDS011;49839;51.798;10.954;2023-07-13T11:59:22;3.75;;;0.75;;
63693;SDS011;49839;51.798;10.954;2023-07-13T12:01:52;1.75;;;0.70;;
63693;SDS011;49839;51.798;10.954;2023-07-13T12:04:22;3.63;;;0.90;;
63693;SDS011;49839;51.798;10.954;2023-07-13T12:06:54;5.85;;;0.90;;
63693;SDS011;49839;51.798;10.954;2023-07-13T12:09:25;2.55;;;0.70;;
63693;SDS011;49839;51.798;10.954;2023-07-13T12:11:55;5.20;;;1.30;;
63693;SDS011;49839;51.798;10.954;2023-07-13T12:14:24;5.97;;;0.82;;
63693;SDS011;49839;51.798;10.954;2023-07-13T12:16:53;2.08;;;0.70;;
63693;SDS011;49839;51.798;10.954;2023-07-13T12:19:23;3.85;;;1.00;;
63693;SDS011;49839;51.798;10.954;2023-07-13T12:21:53;4.78;;;1.20;;
63693;SDS011;49839;51.798;10.954;2023-07-13T12:24:24;2.92;;;0.85;;
63693;SDS011;49839;51.798;10.954;2023-07-13T12:26:54;2.22;;;0.80;;
63693;SDS011;49839;51.798;10.954;2023-07-13T12:29:25;3.60;;;0.93;;
63693;SDS011;49839;51.798;10.954;2023-07-13T12:31:53;4.38;;;1.02;;
63693;SDS011;49839;51.798;10.954;2023-07-13T12:34:23;3.33;;;0.80;;
63693;SDS011;49839;51.798;10.954;2023-07-13T12:36:53;1.98;;;0.80;;
63693;SDS011;49839;51.798;10.954;2023-07-13T12:39:26;5.47;;;1.02;;
63693;SDS011;49839;51.798;10.954;2023-07-13T12:42:09;4.30;;;0.90;;
63693;SDS011;49839;51.798;10.954;2023-07-13T12:44:47;2.83;;;0.98;;
63693;SDS011;49839;51.798;10.954;2023-07-13T12:47:15;3.50;;;0.80;;
63693;SDS011;49839;51.798;10.954;2023-07-13T12:49:43;3.55;;;0.80;;
63693;SDS011;49839;51.798;10.954;2023-07-13T12:52:16;7.65;;;1.88;;
63693;SDS011;49839;51.798;10.954;2023-07-13T12:54:54;4.70;;;0.82;;
63693;SDS011;49839;51.798;10.954;2023-07-13T12:57:27;1.92;;;0.73;;
63693;SDS011;49839;51.798;10.954;2023-07-13T12:59:55;3.33;;;0.70;;
63693;SDS011;49839;51.798;10.954;2023-07-13T13:02:26;4.15;;;0.77;;
63693;SDS011;49839;51.798;10.954;2023-07-13T13:04:57;3.60;;;0.70;;
63693;SDS011;49839;51.798;10.954;2023-07-13T13:07:26;2.03;;;0.63;;
63693;SDS011;49839;51.798;10.954;2023-07-13T13:09:55;1.98;;;0.68;;
63693;SDS011;49839;51.798;10.954;2023-07-13T13:12:23;4.28;;;0.80;;
63693;SDS011;49839;51.798;10.954;2023-07-13T13:17:29;2.80;;;0.70;;
63693;SDS011;49839;51.798;10.954;2023-07-13T13:22:26;4.05;;;0.82;;
63693;SDS011;49839;51.798;10.954;2023-07-13T13:24:55;3.80;;;0.90;;
63693;SDS011;49839;51.798;10.954;2023-07-13T13:27:23;2.90;;;0.75;;
63693;SDS011;49839;51.798;10.954;2023-07-13T13:29:51;2.05;;;0.90;;
63693;SDS011;49839;51.798;10.954;2023-07-13T13:32:19;2.97;;;0.80;;
63693;SDS011;49839;51.798;10.954;2023-07-13T13:34:47;2.83;;;0.80;;
63693;SDS011;49839;51.798;10.954;2023-07-13T13:37:18;3.35;;;0.90;;
63693;SDS011;49839;51.798;10.954;2023-07-13T13:39:47;5.05;;;1.20;;
63693;SDS011;49839;51.798;10.954;2023-07-13T13:42:35;3.35;;;1.08;;
63693;SDS011;49839;51.798;10.954;2023-07-13T13:45:03;2.75;;;1.00;;
63693;SDS011;49839;51.798;10.954;2023-07-13T13:47:32;4.85;;;0.77;;
63693;SDS011;49839;51.798;10.954;2023-07-13T13:50:08;2.78;;;0.88;;
63693;SDS011;49839;51.798;10.954;2023-07-13T13:52:39;2.67;;;0.80;;
63693;SDS011;49839;51.798;10.954;2023-07-13T13:55:11;3.25;;;0.80;;
63693;SDS011;49839;51.798;10.954;2023-07-13T13:57:41;3.75;;;0.80;;
63693;SDS011;49839;51.798;10.954;2023-07-13T14:00:09;6.45;;;1.10;;
63693;SDS011;49839;51.798;10.954;2023-07-13T14:02:41;7.10;;;0.90;;
63693;SDS011;49839;51.798;10.954;2023-07-13T14:05:14;5.38;;;1.00;;
63693;SDS011;49839;51.798;10.954;2023-07-13T14:07:43;3.17;;;1.10;;
63693;SDS011;49839;51.798;10.954;2023-07-13T14:10:12;3.13;;;0.90;;
63693;SDS011;49839;51.798;10.954;2023-07-13T14:12:43;2.78;;;0.70;;
63693;SDS011;49839;51.798;10.954;2023-07-13T14:15:13;2.95;;;1.00;;
63693;SDS011;49839;51.798;10.954;2023-07-13T14:17:47;4.25;;;0.90;;
63693;SDS011;49839;51.798;10.954;2023-07-13T14:20:16;5.22;;;1.00;;
63693;SDS011;49839;51.798;10.954;2023-07-13T14:22:44;5.10;;;1.73;;
63693;SDS011;49839;51.798;10.954;2023-07-13T14:25:13;2.72;;;1.00;;
63693;SDS011;49839;51.798;10.954;2023-07-13T14:27:41;5.47;;;0.98;;
63693;SDS011;49839;51.798;10.954;2023-07-13T14:30:12;6.35;;;0.93;;
63693;SDS011;49839;51.798;10.954;2023-07-13T14:32:41;3.47;;;0.90;;
63693;SDS011;49839;51.798;10.954;2023-07-13T14:37:39;2.57;;;0.80;;
63693;SDS011;49839;51.798;10.954;2023-07-13T14:40:12;3.60;;;0.90;;
63693;SDS011;49839;51.798;10.954;2023-07-13T14:42:41;3.22;;;0.88;;
63693;SDS011;49839;51.798;10.954;2023-07-13T14:45:14;2.10;;;1.00;;
63693;SDS011;49839;51.798;10.954;2023-07-13T14:47:42;5.75;;;0.93;;
63693;SDS011;49839;51.798;10.954;2023-07-13T14:50:14;3.47;;;0.87;;
63693;SDS011;49839;51.798;10.954;2023-07-13T14:52:44;2.85;;;0.90;;
63693;SDS011;49839;51.798;10.954;2023-07-13T14:55:14;3.95;;;1.00;;
63693;SDS011;49839;51.798;10.954;2023-07-13T14:57:44;3.42;;;1.05;;
63693;SDS011;49839;51.798;10.954;2023-07-13T15:00:15;3.08;;;0.88;;
63693;SDS011;49839;51.798;10.954;2023-07-13T15:02:45;4.07;;;1.00;;
63693;SDS011;49839;51.798;10.954;2023-07-13T15:05:16;3.63;;;0.95;;
63693;SDS011;49839;51.798;10.954;2023-07-13T15:07:47;3.58;;;0.93;;
63693;SDS011;49839;51.798;10.954;2023-07-13T15:10:15;5.82;;;1.15;;
63693;SDS011;49839;51.798;10.954;2023-07-13T15:12:44;7.72;;;1.20;;
63693;SDS011;49839;51.798;10.954;2023-07-13T15:15:12;6.43;;;1.20;;
63693;SDS011;49839;51.798;10.954;2023-07-13T15:17:42;5.05;;;0.98;;
63693;SDS011;49839;51.798;10.954;2023-07-13T15:20:15;4.65;;;1.10;;
63693;SDS011;49839;51.798;10.954;2023-07-13T15:22:46;3.03;;;1.08;;